Houston, Texas
Traffic Map
Current Weather Conditions
Houston, Texas
Scattered Clouds
Scattered Clouds
33°
Feels Like: 37°
Wind Chill: 33° Ceiling: Unl
Heat Index: 37° Visibility: 10mi
Dew Point: 22° Wind: 14mph
Humidity: 52% Direction: 130° (SE)
Pressure: 29.96in Gusts: 28mph
Raw Report DataKMCJ 021715Z AUTO 13012G24KT 10SM SCT038 SCT055 33/22 A2996 RMK AO1
Traffic Incident Summary
Active as of:
Severity:
Category:
InformationThere was an issue retrieving the traffic information for this location. Please try a different location or try again shortly.
Advertisements
Track Severe Weather on mobile